Lingleville, Texas
Current Conditions -  °F | °C
As of 4:35 PM on Sunday 23 Nov 2014 (Local Time) from KSEP Reporting Station
Clear Clear  
Wind Chill: 70°   Ceiling: Unl
Heat Index: 70°   Visibility: 10mi
Dew Point: 33°   Wind: 13mph
Humidity: 26%   Direction: 300°WNW
Pressure: 29.56"   Gusts: 29mph
Location:  32.24°N, 98.38°W
Report Text: KSEP 232235Z AUTO 30011G25KT 10SM CLR 21/01 A2956 RMK AO2 T02110007
Loading
Personal Weather Stations






























Interactive Weather Map New forecast layout! Learn more

10-Day Weather Forecast

Advertisements
Track Severe Weather on mobile